Time;durP1;ratioP1;P1;durP2;ratioP2;P2;SDS_P1;SDS_P2;PMS_P1;PMS_P2;Temp;Humidity;BMP_temperature;BMP_pressure;BME280_temperature;BME280_humidity;BME280_pressure;Samples;Min_cycle;Max_cycle;Signal;HPM_P1;HPM_P2
2023/05/27 00:00:16;;;;;;;4.80;4.15;;;24.30;47.00;;;;;;5020055;28;20125;-66
2023/05/27 00:02:42;;;;;;;4.93;4.32;;;24.30;47.00;;;;;;5020250;28;20135;-66
2023/05/27 00:05:08;;;;;;;4.75;4.25;;;24.30;47.10;;;;;;5020119;28;20137;-66
2023/05/27 00:07:33;;;;;;;4.93;4.13;;;24.30;47.10;;;;;;5017149;28;20036;-66
2023/05/27 00:09:59;;;;;;;4.85;4.32;;;24.30;47.10;;;;;;5018250;28;20026;-66
2023/05/27 00:12:25;;;;;;;4.95;4.45;;;24.30;47.20;;;;;;5019522;28;20033;-66
2023/05/27 00:14:50;;;;;;;5.20;4.15;;;24.30;47.10;;;;;;5018864;28;20064;-66
2023/05/27 00:17:16;;;;;;;4.85;4.20;;;24.30;47.10;;;;;;5018282;28;20034;-66
2023/05/27 00:19:42;;;;;;;4.75;4.25;;;24.20;47.10;;;;;;5020014;28;20045;-66
2023/05/27 00:22:08;;;;;;;4.38;3.90;;;24.20;47.10;;;;;;5018654;28;20151;-66
2023/05/27 00:24:36;;;;;;;4.78;3.90;;;24.20;47.20;;;;;;5018786;28;20144;-67
2023/05/27 00:27:02;;;;;;;4.47;3.83;;;24.20;47.20;;;;;;5017826;28;20018;-67
2023/05/27 00:29:28;;;;;;;4.60;3.67;;;24.20;47.20;;;;;;5018794;28;20196;-66
2023/05/27 00:31:53;;;;;;;4.60;4.13;;;24.20;47.20;;;;;;5019758;28;20573;-66
2023/05/27 00:34:19;;;;;;;4.47;3.80;;;24.20;47.20;;;;;;5020479;28;20030;-66
2023/05/27 00:36:45;;;;;;;4.40;3.80;;;24.20;47.30;;;;;;5020990;28;20147;-66
2023/05/27 00:39:10;;;;;;;4.60;4.00;;;24.20;47.30;;;;;;5021689;28;20022;-66
2023/05/27 00:41:36;;;;;;;4.35;3.83;;;24.20;47.30;;;;;;5017770;28;20021;-67
2023/05/27 00:44:03;;;;;;;4.78;3.75;;;24.10;47.30;;;;;;5019559;28;20025;-66
2023/05/27 00:46:28;;;;;;;4.38;3.80;;;24.10;47.30;;;;;;5019319;28;20037;-66
2023/05/27 00:48:54;;;;;;;4.65;3.63;;;24.10;47.30;;;;;;5019431;28;20490;-66
2023/05/27 00:51:20;;;;;;;4.03;3.63;;;24.10;47.40;;;;;;5019348;28;20034;-66
2023/05/27 00:53:46;;;;;;;4.65;3.90;;;24.10;47.40;;;;;;5026395;28;20033;-66
2023/05/27 00:56:15;;;;;;;4.32;3.60;;;24.10;47.40;;;;;;5022233;28;20034;-66
2023/05/27 00:58:42;;;;;;;4.63;3.92;;;24.10;47.40;;;;;;5017374;28;20059;-66
2023/05/27 01:01:07;;;;;;;4.55;3.85;;;24.10;47.40;;;;;;5018454;28;20047;-66
2023/05/27 01:03:34;;;;;;;4.45;3.80;;;24.10;47.40;;;;;;5018130;28;20029;-66
2023/05/27 01:06:40;;;;;;;4.10;3.58;;;24.10;47.40;;;;;;5017194;28;20045;-66
2023/05/27 01:09:24;;;;;;;4.65;3.60;;;24.10;47.50;;;;;;5012703;28;20033;-66
2023/05/27 01:12:14;;;;;;;3.88;3.33;;;24.10;47.50;;;;;;5035077;28;20470;-66
2023/05/27 01:14:43;;;;;;;4.40;3.42;;;24.10;47.50;;;;;;5018580;28;20040;-66
2023/05/27 01:17:10;;;;;;;3.78;3.33;;;24.00;47.50;;;;;;5018749;28;20030;-66
2023/05/27 01:19:45;;;;;;;4.43;3.80;;;24.00;47.50;;;;;;5020259;28;20188;-66
2023/05/27 01:22:14;;;;;;;4.53;3.50;;;24.00;47.50;;;;;;5019764;28;20033;-66
2023/05/27 01:24:43;;;;;;;4.35;3.70;;;24.00;48.10;;;;;;5020315;28;20436;-66
2023/05/27 01:27:11;;;;;;;4.03;3.28;;;24.00;47.60;;;;;;5019555;28;20026;-66
2023/05/27 01:29:40;;;;;;;4.33;3.40;;;24.00;47.60;;;;;;5020088;28;20032;-66
2023/05/27 01:32:20;;;;;;;4.32;3.58;;;24.00;47.60;;;;;;5018934;28;20277;-66
2023/05/27 01:35:00;;;;;;;4.07;3.47;;;24.00;47.60;;;;;;5018669;28;20041;-66
2023/05/27 01:37:30;;;;;;;3.60;3.10;;;23.90;47.60;;;;;;5019547;28;20496;-66
2023/05/27 01:39:56;;;;;;;4.13;3.45;;;23.90;47.60;;;;;;5016471;28;20029;-66
2023/05/27 01:42:22;;;;;;;3.85;3.20;;;23.90;47.60;;;;;;5020939;28;20068;-66
2023/05/27 01:44:51;;;;;;;3.55;3.00;;;23.90;47.60;;;;;;5032922;28;20527;-66
2023/05/27 01:47:17;;;;;;;4.43;3.50;;;23.90;47.70;;;;;;5020447;28;20548;-66
2023/05/27 01:49:42;;;;;;;4.05;3.20;;;23.90;47.70;;;;;;5016159;28;20071;-66
2023/05/27 01:52:08;;;;;;;3.90;3.28;;;23.90;48.20;;;;;;5019292;28;20071;-66
2023/05/27 01:54:34;;;;;;;3.38;2.90;;;23.90;47.70;;;;;;5015048;28;20359;-66
2023/05/27 01:57:00;;;;;;;4.13;3.33;;;23.90;47.70;;;;;;5018679;28;20039;-66
2023/05/27 01:59:26;;;;;;;4.05;3.17;;;23.90;47.80;;;;;;5016477;28;20032;-66
2023/05/27 02:01:52;;;;;;;4.20;3.25;;;23.90;47.70;;;;;;5016757;28;20394;-66
2023/05/27 02:04:17;;;;;;;3.75;3.30;;;23.90;47.80;;;;;;5022166;28;20475;-66
2023/05/27 02:06:43;;;;;;;3.90;3.20;;;23.90;47.80;;;;;;5017061;28;20108;-66
2023/05/27 02:09:10;;;;;;;3.90;3.22;;;23.90;47.80;;;;;;5019297;28;20079;-66
2023/05/27 02:11:36;;;;;;;3.78;3.03;;;23.90;47.80;;;;;;5018603;28;20033;-66
2023/05/27 02:14:02;;;;;;;3.33;2.90;;;23.90;47.80;;;;;;5019676;28;20030;-66
2023/05/27 02:16:28;;;;;;;3.80;3.17;;;23.80;47.80;;;;;;5017949;28;20180;-66
2023/05/27 02:18:54;;;;;;;3.28;2.88;;;23.80;47.80;;;;;;5020642;28;20022;-66
2023/05/27 02:21:20;;;;;;;4.53;3.30;;;23.80;47.80;;;;;;5018079;28;20013;-66
2023/05/27 02:23:45;;;;;;;3.83;3.03;;;23.80;47.80;;;;;;5019113;28;20540;-66
2023/05/27 02:26:11;;;;;;;3.25;2.83;;;23.80;47.80;;;;;;5018707;28;20113;-66
2023/05/27 02:28:36;;;;;;;3.45;2.65;;;23.80;47.90;;;;;;5019048;28;20017;-67
2023/05/27 02:31:02;;;;;;;3.22;2.70;;;23.80;47.80;;;;;;5018165;28;20041;-66
2023/05/27 02:33:28;;;;;;;3.47;2.95;;;23.80;47.90;;;;;;5021158;28;20149;-66
2023/05/27 02:35:53;;;;;;;3.72;2.95;;;23.80;47.90;;;;;;5023434;28;20104;-66
2023/05/27 02:38:19;;;;;;;3.50;2.90;;;23.80;47.90;;;;;;5021942;28;20542;-66
2023/05/27 02:40:45;;;;;;;3.88;3.10;;;23.80;47.90;;;;;;5020132;28;20026;-66
2023/05/27 02:43:10;;;;;;;3.35;2.75;;;23.80;48.00;;;;;;5024158;28;20485;-66
2023/05/27 02:45:36;;;;;;;4.00;2.78;;;23.70;47.90;;;;;;5021022;28;20018;-66
2023/05/27 02:48:02;;;;;;;3.40;2.83;;;23.70;47.90;;;;;;5024447;28;20033;-66
2023/05/27 02:50:28;;;;;;;3.67;2.78;;;23.70;47.90;;;;;;5022238;28;20538;-66
2023/05/27 02:52:53;;;;;;;3.60;2.90;;;23.70;48.00;;;;;;5021582;28;20112;-66
2023/05/27 02:55:19;;;;;;;3.65;2.85;;;23.70;48.00;;;;;;5022177;28;20037;-67
2023/05/27 02:57:45;;;;;;;3.17;2.60;;;23.70;48.00;;;;;;5022927;28;20113;-67
2023/05/27 03:00:13;;;;;;;3.58;2.72;;;23.70;48.00;;;;;;5019874;28;20030;-66
2023/05/27 03:02:39;;;;;;;3.55;2.70;;;23.70;48.00;;;;;;5020283;28;20022;-66
2023/05/27 03:05:05;;;;;;;3.53;2.75;;;23.70;48.00;;;;;;5021089;28;20025;-66
2023/05/27 03:07:31;;;;;;;3.55;2.60;;;23.70;48.00;;;;;;5021791;28;20040;-66
2023/05/27 03:09:56;;;;;;;3.72;2.83;;;23.70;48.10;;;;;;5020128;28;20042;-66
2023/05/27 03:12:22;;;;;;;3.40;2.70;;;23.70;48.10;;;;;;5021643;28;20033;-66
2023/05/27 03:14:49;;;;;;;3.35;2.75;;;23.70;48.10;;;;;;5024275;28;20022;-66
2023/05/27 03:17:14;;;;;;;3.80;2.90;;;23.60;48.10;;;;;;5018929;28;20053;-67
2023/05/27 03:19:40;;;;;;;3.78;2.72;;;23.70;48.10;;;;;;5022165;28;20167;-66
2023/05/27 03:22:06;;;;;;;3.50;2.80;;;23.60;48.10;;;;;;5022345;28;20033;-67
2023/05/27 03:24:33;;;;;;;3.22;2.38;;;23.60;48.10;;;;;;5020633;28;20559;-67
2023/05/27 03:26:59;;;;;;;3.08;2.42;;;23.60;48.10;;;;;;5021617;28;20022;-66
2023/05/27 03:29:25;;;;;;;3.38;2.63;;;23.60;48.10;;;;;;5019534;28;20037;-66
2023/05/27 03:31:50;;;;;;;3.53;2.72;;;23.60;48.10;;;;;;5021283;28;20041;-66
2023/05/27 03:34:16;;;;;;;3.33;2.50;;;23.60;48.20;;;;;;5019302;28;20105;-66
2023/05/27 03:36:46;;;;;;;3.70;2.90;;;23.60;48.20;;;;;;5019348;28;20362;-66
2023/05/27 03:39:15;;;;;;;3.38;2.60;;;23.60;48.20;;;;;;5022985;28;20032;-67
2023/05/27 03:41:41;;;;;;;3.40;2.63;;;23.60;48.20;;;;;;5039203;28;20026;-66
2023/05/27 03:44:06;;;;;;;3.15;2.40;;;23.60;48.20;;;;;;5019466;28;20466;-67
2023/05/27 03:46:33;;;;;;;3.17;2.42;;;23.60;48.20;;;;;;5021015;28;20119;-67
2023/05/27 03:48:58;;;;;;;2.80;2.35;;;23.60;48.20;;;;;;5020689;28;20025;-66
2023/05/27 03:51:24;;;;;;;3.15;2.40;;;23.50;48.20;;;;;;5021923;28;20474;-66
2023/05/27 03:53:50;;;;;;;2.85;2.40;;;23.50;48.20;;;;;;5020860;28;20030;-66
2023/05/27 03:56:16;;;;;;;3.40;2.42;;;23.50;48.30;;;;;;5015557;28;20039;-66
2023/05/27 03:58:41;;;;;;;3.10;2.58;;;23.50;48.30;;;;;;5021704;28;20064;-66
2023/05/27 04:01:08;;;;;;;3.30;2.50;;;23.50;48.80;;;;;;5018955;28;20059;-66
2023/05/27 04:03:34;;;;;;;3.00;2.30;;;23.60;48.30;;;;;;5022331;28;20018;-66
2023/05/27 04:05:59;;;;;;;3.00;2.30;;;23.50;48.30;;;;;;5021336;28;20036;-66
2023/05/27 04:08:28;;;;;;;3.00;2.40;;;23.50;48.30;;;;;;5016460;28;20026;-66
2023/05/27 04:10:54;;;;;;;3.30;2.50;;;23.50;48.30;;;;;;5018448;28;20030;-66
2023/05/27 04:13:20;;;;;;;3.70;2.50;;;23.50;48.30;;;;;;5021378;28;20041;-66
2023/05/27 04:15:46;;;;;;;2.53;2.00;;;23.50;48.40;;;;;;5021171;28;20088;-66
2023/05/27 04:18:12;;;;;;;2.65;2.30;;;23.50;48.40;;;;;;5019528;28;20064;-66
2023/05/27 04:20:40;;;;;;;3.40;2.42;;;23.50;48.40;;;;;;5024093;28;20061;-66
2023/05/27 04:23:09;;;;;;;3.20;2.42;;;23.50;48.40;;;;;;5022630;28;20414;-66
2023/05/27 04:25:35;;;;;;;;;;;23.50;48.40;;;;;;5020409;28;20453;-66
2023/05/27 04:28:05;;;;;;;3.13;2.30;;;23.50;48.40;;;;;;5021709;28;19943;-66
2023/05/27 04:30:32;;;;;;;3.13;2.50;;;23.50;48.40;;;;;;5019999;28;20026;-66
2023/05/27 04:32:59;;;;;;;2.95;2.30;;;23.50;48.50;;;;;;5019332;28;20034;-66
2023/05/27 04:35:25;;;;;;;3.00;2.10;;;23.40;48.50;;;;;;5021947;28;20022;-66
2023/05/27 04:37:51;;;;;;;3.28;2.47;;;23.40;48.50;;;;;;5019942;28;20105;-66
2023/05/27 04:40:17;;;;;;;2.90;2.40;;;23.40;48.50;;;;;;5018826;28;20041;-66
2023/05/27 04:42:43;;;;;;;3.17;2.28;;;23.40;48.50;;;;;;5020344;28;20065;-66
2023/05/27 04:45:12;;;;;;;3.13;2.28;;;23.40;48.60;;;;;;5021694;28;20065;-66
2023/05/27 04:47:40;;;;;;;2.90;2.20;;;23.40;48.60;;;;;;5015427;28;20030;-66
2023/05/27 04:50:07;;;;;;;3.10;2.40;;;23.40;48.60;;;;;;5016273;28;20059;-66
2023/05/27 04:52:37;;;;;;;2.90;2.20;;;23.40;48.60;;;;;;5019302;28;20104;-66
2023/05/27 04:55:06;;;;;;;2.95;2.10;;;23.40;48.60;;;;;;5019035;28;20513;-66
2023/05/27 04:57:32;;;;;;;3.40;2.25;;;23.40;48.60;;;;;;5021569;28;20060;-66
2023/05/27 05:00:17;;;;;;;2.75;2.17;;;23.40;48.60;;;;;;5020525;28;20033;-66
2023/05/27 05:02:46;;;;;;;2.92;2.20;;;23.40;48.60;;;;;;5018881;28;20026;-66
2023/05/27 05:05:12;;;;;;;3.15;2.42;;;23.40;48.60;;;;;;5020884;28;20052;-66
2023/05/27 05:07:39;;;;;;;2.97;2.30;;;23.40;48.60;;;;;;5019501;28;20041;-66
2023/05/27 05:10:07;;;;;;;2.70;2.13;;;23.40;48.60;;;;;;5018474;28;20025;-66
2023/05/27 05:12:33;;;;;;;3.28;2.45;;;23.40;48.60;;;;;;5017858;28;20493;-66
2023/05/27 05:14:58;;;;;;;2.72;2.08;;;23.40;48.60;;;;;;5019090;28;20113;-66
2023/05/27 05:17:24;;;;;;;3.20;2.20;;;23.40;48.60;;;;;;5018018;28;20116;-66
2023/05/27 05:19:52;;;;;;;3.33;2.25;;;23.40;48.60;;;;;;5019897;28;20033;-66
2023/05/27 05:22:22;;;;;;;2.72;2.03;;;23.40;48.60;;;;;;5021140;28;20493;-66
2023/05/27 05:24:51;;;;;;;2.65;2.17;;;23.40;48.60;;;;;;5018270;28;20029;-66
2023/05/27 05:27:17;;;;;;;2.75;2.20;;;23.40;48.60;;;;;;5020013;28;20084;-66
2023/05/27 05:29:43;;;;;;;3.25;2.30;;;23.40;48.60;;;;;;5021566;28;20025;-66
2023/05/27 05:32:11;;;;;;;2.78;1.95;;;23.40;48.70;;;;;;5017245;28;20572;-66
2023/05/27 05:34:37;;;;;;;3.15;2.33;;;23.30;48.60;;;;;;5019024;28;20048;-66
2023/05/27 05:37:03;;;;;;;2.60;2.05;;;23.30;48.60;;;;;;5020129;28;20411;-66
2023/05/27 05:39:28;;;;;;;3.10;2.10;;;23.30;48.60;;;;;;5019866;28;20036;-66
2023/05/27 05:41:54;;;;;;;3.22;2.33;;;23.30;48.60;;;;;;5019769;28;20037;-66
2023/05/27 05:44:20;;;;;;;2.83;2.00;;;23.40;48.70;;;;;;5019859;28;20054;-66
2023/05/27 05:46:46;;;;;;;3.10;2.17;;;23.30;48.60;;;;;;5016563;28;20021;-66
2023/05/27 05:49:11;;;;;;;2.80;2.05;;;23.30;48.60;;;;;;5034051;28;20056;-66
2023/05/27 05:51:37;;;;;;;2.80;2.30;;;23.40;48.70;;;;;;5020279;28;20026;-66
2023/05/27 05:54:02;;;;;;;2.95;2.25;;;23.30;48.70;;;;;;5018348;28;20060;-67
2023/05/27 05:56:28;;;;;;;2.95;2.10;;;23.30;48.70;;;;;;5018746;28;20033;-66
2023/05/27 05:58:54;;;;;;;2.70;1.90;;;23.30;48.70;;;;;;5019423;28;20032;-66
2023/05/27 06:01:19;;;;;;;2.67;2.00;;;23.30;48.70;;;;;;5020918;28;20553;-66
2023/05/27 06:03:45;;;;;;;2.50;1.85;;;23.30;48.70;;;;;;5017304;28;20037;-66
2023/05/27 06:06:11;;;;;;;2.45;1.92;;;23.30;48.70;;;;;;5022295;28;20037;-66
2023/05/27 06:08:37;;;;;;;3.03;2.00;;;23.30;48.70;;;;;;5023896;28;20025;-66
2023/05/27 06:11:03;;;;;;;2.88;2.10;;;23.30;49.30;;;;;;5021934;28;20103;-66
2023/05/27 06:13:28;;;;;;;2.60;2.03;;;23.30;48.70;;;;;;5021988;28;20108;-66
2023/05/27 06:15:57;;;;;;;2.72;2.00;;;23.30;48.80;;;;;;5022363;28;20496;-66
2023/05/27 06:18:22;;;;;;;2.72;2.00;;;23.30;48.80;;;;;;5020903;28;20030;-66
2023/05/27 06:20:48;;;;;;;2.63;1.90;;;23.30;48.80;;;;;;5023796;28;20109;-66
2023/05/27 06:23:13;;;;;;;3.22;2.05;;;23.30;48.80;;;;;;5022828;28;20025;-66
2023/05/27 06:25:39;;;;;;;2.83;1.98;;;23.30;48.80;;;;;;5025353;28;20029;-66
2023/05/27 06:28:05;;;;;;;2.85;2.10;;;23.30;48.80;;;;;;5022596;28;20044;-66
2023/05/27 06:30:36;;;;;;;2.30;1.90;;;23.30;48.80;;;;;;5021110;28;20521;-66
2023/05/27 06:33:02;;;;;;;2.90;2.00;;;23.30;48.80;;;;;;5020787;28;20064;-66
2023/05/27 06:35:28;;;;;;;2.63;1.90;;;23.20;48.80;;;;;;5023857;28;20399;-67
2023/05/27 06:37:54;;;;;;;3.35;2.03;;;23.20;48.80;;;;;;5023158;28;20029;-66
2023/05/27 06:40:19;;;;;;;2.50;1.73;;;23.30;48.80;;;;;;5024523;28;20022;-66
2023/05/27 06:42:45;;;;;;;2.72;2.00;;;23.30;48.80;;;;;;5021511;28;20037;-66
2023/05/27 06:45:11;;;;;;;2.38;1.73;;;23.20;48.80;;;;;;5021855;28;20243;-66
2023/05/27 06:47:37;;;;;;;2.47;2.05;;;23.20;48.70;;;;;;5021223;28;20030;-66
2023/05/27 06:50:03;;;;;;;2.60;2.00;;;23.20;48.80;;;;;;5023309;28;20092;-67
2023/05/27 06:52:29;;;;;;;2.65;1.70;;;23.20;48.70;;;;;;5022056;28;20034;-66
2023/05/27 06:54:54;;;;;;;3.30;2.10;;;23.20;48.70;;;;;;5036694;28;20481;-66
2023/05/27 06:57:20;;;;;;;2.72;1.73;;;23.20;48.70;;;;;;5022761;28;20032;-66
2023/05/27 06:59:46;;;;;;;3.05;1.90;;;23.20;48.70;;;;;;5026868;28;20025;-66
2023/05/27 07:02:11;;;;;;;2.50;1.70;;;23.20;48.70;;;;;;5023033;28;20033;-66
2023/05/27 07:04:37;;;;;;;3.05;2.00;;;23.20;48.70;;;;;;5021260;28;20022;-66
2023/05/27 07:07:03;;;;;;;2.40;1.75;;;23.20;48.70;;;;;;5019253;28;20033;-66
2023/05/27 07:09:29;;;;;;;2.28;1.70;;;23.20;48.70;;;;;;5022336;28;20032;-66
2023/05/27 07:11:54;;;;;;;2.60;1.85;;;23.20;48.70;;;;;;5021564;28;20029;-66
2023/05/27 07:14:20;;;;;;;2.72;1.83;;;23.20;48.70;;;;;;5022727;28;20030;-66
2023/05/27 07:16:46;;;;;;;2.58;1.80;;;23.20;48.60;;;;;;5020812;28;20112;-66
2023/05/27 07:19:11;;;;;;;2.72;1.80;;;23.20;48.60;;;;;;5018932;28;20034;-67
2023/05/27 07:21:37;;;;;;;2.58;1.95;;;23.20;48.60;;;;;;5019489;28;20590;-66
2023/05/27 07:24:03;;;;;;;2.72;1.73;;;23.20;48.60;;;;;;5021931;28;20056;-66
2023/05/27 07:26:32;;;;;;;2.67;1.85;;;23.20;48.60;;;;;;5021688;28;20064;-66
2023/05/27 07:28:59;;;;;;;2.60;1.80;;;23.20;48.60;;;;;;5020498;28;20109;-66
2023/05/27 07:31:27;;;;;;;3.20;2.13;;;23.20;48.60;;;;;;5023154;28;20029;-64
2023/05/27 07:33:53;;;;;;;3.38;2.17;;;23.20;48.60;;;;;;5022475;28;20181;-65
2023/05/27 07:36:19;;;;;;;3.05;2.20;;;23.20;48.60;;;;;;5020127;28;20482;-65
2023/05/27 07:38:45;;;;;;;4.03;2.50;;;23.30;48.60;;;;;;5018873;28;20079;-65
2023/05/27 07:41:13;;;;;;;3.25;2.08;;;23.30;48.70;;;;;;5022813;28;20386;-65
2023/05/27 07:43:39;;;;;;;3.55;2.17;;;23.30;48.40;;;;;;5020763;28;20390;-65
2023/05/27 07:46:05;;;;;;;2.90;1.70;;;23.30;48.30;;;;;;5021843;28;20017;-64
2023/05/27 07:48:30;;;;;;;2.70;1.70;;;23.40;48.30;;;;;;5017191;28;20516;-65
2023/05/27 07:50:56;;;;;;;2.75;1.75;;;23.40;48.20;;;;;;5019318;28;20034;-64
2023/05/27 07:53:21;;;;;;;3.28;1.77;;;23.30;48.20;;;;;;5020730;28;20401;-64
2023/05/27 07:55:47;;;;;;;3.05;1.80;;;23.30;48.30;;;;;;5024221;28;20026;-64
2023/05/27 07:58:13;;;;;;;2.50;1.60;;;23.40;48.30;;;;;;5020419;28;20037;-66
2023/05/27 08:00:39;;;;;;;2.25;1.60;;;23.30;48.30;;;;;;5021200;28;20026;-65
2023/05/27 08:03:05;;;;;;;3.00;1.85;;;23.40;48.40;;;;;;5020480;28;20091;-64
2023/05/27 08:05:32;;;;;;;2.53;1.63;;;23.40;48.40;;;;;;5027794;28;20501;-65
2023/05/27 08:07:57;;;;;;;2.65;1.80;;;23.30;48.90;;;;;;5020259;28;20036;-65
2023/05/27 08:10:23;;;;;;;3.13;1.50;;;23.40;48.40;;;;;;5021671;28;20108;-64
2023/05/27 08:12:49;;;;;;;4.78;1.80;;;23.40;48.30;;;;;;5019759;28;20026;-64
2023/05/27 08:15:14;;;;;;;3.00;1.80;;;23.40;48.30;;;;;;5018857;28;20107;-65
2023/05/27 08:17:42;;;;;;;3.35;1.67;;;23.50;48.30;;;;;;5018843;28;20128;-65
2023/05/27 08:20:08;;;;;;;2.75;1.70;;;23.40;48.20;;;;;;5020570;28;20022;-66
2023/05/27 08:22:33;;;;;;;3.00;1.40;;;23.50;48.20;;;;;;5021446;28;20030;-66
2023/05/27 08:24:59;;;;;;;2.90;1.70;;;23.50;48.20;;;;;;5021846;28;20470;-65
2023/05/27 08:28:01;;;;;;;2.70;1.60;;;23.50;48.10;;;;;;5019514;28;20036;-66
2023/05/27 08:30:28;;;;;;;2.40;1.50;;;23.50;48.10;;;;;;5019744;28;20038;-65
2023/05/27 08:32:54;;;;;;;2.88;1.60;;;23.50;48.50;;;;;;5020839;28;20641;-66
2023/05/27 08:35:20;;;;;;;2.17;1.42;;;23.50;48.00;;;;;;5017850;28;20029;-65
2023/05/27 08:37:46;;;;;;;2.65;1.60;;;23.50;48.00;;;;;;5018625;28;20084;-65
2023/05/27 08:40:14;;;;;;;2.55;1.60;;;23.60;48.00;;;;;;5024272;28;20389;-65
2023/05/27 08:42:40;;;;;;;2.40;1.43;;;23.60;48.00;;;;;;5019684;28;20022;-65
2023/05/27 08:45:10;;;;;;;2.50;1.60;;;23.60;48.00;;;;;;5019975;28;20045;-65
2023/05/27 08:47:37;;;;;;;;;;;23.60;48.00;;;;;;5020724;28;20499;-66
2023/05/27 08:50:03;;;;;;;2.60;1.52;;;23.70;48.10;;;;;;5020684;28;19912;-66
2023/05/27 08:52:29;;;;;;;3.13;1.60;;;23.70;48.00;;;;;;5019381;28;20104;-66
2023/05/27 08:54:57;;;;;;;3.20;1.90;;;23.70;47.90;;;;;;5019082;28;20022;-66
2023/05/27 08:57:30;;;;;;;2.30;1.55;;;23.70;47.90;;;;;;5019829;28;20109;-66
2023/05/27 08:59:56;;;;;;;2.42;1.67;;;23.70;47.80;;;;;;5025992;28;20030;-66
2023/05/27 09:02:23;;;;;;;2.80;1.80;;;23.70;47.70;;;;;;5018044;28;20438;-67
2023/05/27 09:04:49;;;;;;;3.05;1.75;;;23.70;47.70;;;;;;5017953;28;20394;-66
2023/05/27 09:07:15;;;;;;;2.30;1.42;;;23.70;47.50;;;;;;5019131;28;20496;-66
2023/05/27 09:09:42;;;;;;;2.70;1.60;;;23.70;47.50;;;;;;5021154;28;20025;-66
2023/05/27 09:12:10;;;;;;;3.08;2.00;;;23.70;48.00;;;;;;5019759;28;20500;-66
2023/05/27 09:14:42;;;;;;;3.05;1.80;;;23.70;47.40;;;;;;5019198;28;20498;-66
2023/05/27 09:17:08;;;;;;;3.17;1.73;;;23.70;47.40;;;;;;5020834;28;20080;-66
2023/05/27 09:19:34;;;;;;;3.28;1.77;;;23.70;47.30;;;;;;5031906;28;20018;-66
2023/05/27 09:22:00;;;;;;;3.33;1.77;;;23.70;47.30;;;;;;5019909;28;20030;-66
2023/05/27 09:24:26;;;;;;;3.10;1.63;;;23.70;47.30;;;;;;5020108;28;20032;-66
2023/05/27 09:26:54;;;;;;;4.20;1.92;;;23.80;47.30;;;;;;5017596;28;20034;-66
2023/05/27 09:29:22;;;;;;;3.22;1.70;;;23.80;47.20;;;;;;5017746;28;20437;-66
2023/05/27 09:31:48;;;;;;;3.17;1.65;;;23.80;47.20;;;;;;5019347;28;20033;-67
2023/05/27 09:34:17;;;;;;;3.28;1.60;;;23.80;47.10;;;;;;5018276;28;20040;-66
2023/05/27 09:36:47;;;;;;;2.80;1.70;;;23.70;47.00;;;;;;5016069;28;20033;-66
2023/05/27 09:39:18;;;;;;;2.67;1.50;;;23.80;47.10;;;;;;5023238;28;20104;-66
2023/05/27 09:41:49;;;;;;;2.70;1.60;;;23.80;47.10;;;;;;5026026;28;20052;-66
2023/05/27 09:44:15;;;;;;;2.67;1.70;;;23.80;47.10;;;;;;5022324;28;20421;-67
2023/05/27 09:46:44;;;;;;;2.97;1.60;;;23.80;47.10;;;;;;5025232;28;20026;-66
2023/05/27 09:49:10;;;;;;;;;;;23.80;47.20;;;;;;5025712;28;20089;-66
2023/05/27 09:51:39;;;;;;;3.75;1.90;;;23.80;46.30;;;;;;5023644;28;20017;-66
2023/05/27 09:54:06;;;;;;;3.42;2.00;;;23.80;45.50;;;;;;5026373;28;20389;-66
2023/05/27 09:56:31;;;;;;;3.92;1.92;;;23.80;45.00;;;;;;5026380;28;20489;-65
2023/05/27 09:58:58;;;;;;;4.85;1.90;;;23.80;44.70;;;;;;5023693;28;20113;-67
2023/05/27 10:01:29;;;;;;;5.47;2.22;;;23.80;44.70;;;;;;5026752;28;20046;-67
2023/05/27 10:03:58;;;;;;;5.70;2.55;;;23.80;44.50;;;;;;5024898;28;20026;-66
2023/05/27 10:06:25;;;;;;;3.72;2.05;;;23.80;44.30;;;;;;5025659;28;20064;-66
2023/05/27 10:08:58;;;;;;;4.70;2.15;;;23.80;44.00;;;;;;5024171;28;20061;-66
2023/05/27 10:11:30;;;;;;;4.20;2.13;;;23.80;43.60;;;;;;5025569;28;20564;-65
2023/05/27 10:13:56;;;;;;;4.75;2.20;;;23.90;43.30;;;;;;5026012;28;20541;-65
2023/05/27 10:16:22;;;;;;;4.72;2.30;;;23.90;43.10;;;;;;5026281;28;20104;-65
2023/05/27 10:18:53;;;;;;;5.43;2.67;;;23.90;42.80;;;;;;5024550;28;20055;-65
2023/05/27 10:21:20;;;;;;;5.20;2.53;;;23.90;42.50;;;;;;5023311;28;20540;-66
2023/05/27 10:24:09;;;;;;;4.15;2.17;;;23.90;42.10;;;;;;5025571;28;20100;-67
2023/05/27 10:26:44;;;;;;;4.53;2.22;;;23.90;41.90;;;;;;5026184;28;20547;-66
2023/05/27 10:29:10;;;;;;;5.47;2.10;;;23.90;41.70;;;;;;5025533;28;20029;-65
2023/05/27 10:31:47;;;;;;;5.15;2.60;;;23.90;41.60;;;;;;5024758;28;20041;-67
2023/05/27 10:34:13;;;;;;;4.90;2.30;;;23.90;41.20;;;;;;5025129;28;20112;-66
2023/05/27 10:36:38;;;;;;;3.78;2.20;;;23.90;41.20;;;;;;5025110;28;20144;-66
2023/05/27 10:39:11;;;;;;;4.55;2.35;;;23.90;41.30;;;;;;5025540;28;20385;-67
2023/05/27 10:41:53;;;;;;;3.60;2.00;;;23.90;41.40;;;;;;5024269;28;20032;-66
2023/05/27 10:44:39;;;;;;;4.57;2.03;;;23.90;41.50;;;;;;5025135;28;20032;-67
2023/05/27 10:47:15;;;;;;;4.47;1.85;;;23.90;41.90;;;;;;5025287;28;20018;-68
2023/05/27 10:49:46;;;;;;;3.30;1.90;;;23.90;42.30;;;;;;5023565;28;20076;-67
2023/05/27 10:52:13;;;;;;;3.83;1.90;;;23.90;42.70;;;;;;5019174;28;20030;-67
2023/05/27 10:54:40;;;;;;;3.10;1.70;;;23.90;42.70;;;;;;5022354;28;20017;-66
2023/05/27 10:57:07;;;;;;;3.92;1.98;;;24.00;42.90;;;;;;5021338;28;20049;-66
2023/05/27 10:59:55;;;;;;;4.65;1.92;;;24.00;43.00;;;;;;5022741;28;20034;-66
2023/05/27 11:02:21;;;;;;;3.17;1.65;;;24.00;43.20;;;;;;5020737;28;20026;-65
2023/05/27 11:04:48;;;;;;;3.20;1.60;;;24.00;43.30;;;;;;5021517;28;20018;-65
2023/05/27 11:07:21;;;;;;;3.85;2.08;;;24.00;43.50;;;;;;5019279;28;20121;-65
2023/05/27 11:09:52;;;;;;;3.85;1.88;;;24.00;43.40;;;;;;5021534;28;20045;-64
2023/05/27 11:12:19;;;;;;;3.45;1.85;;;24.00;43.50;;;;;;5021919;28;20458;-64
2023/05/27 11:14:54;;;;;;;3.85;1.80;;;24.00;43.70;;;;;;5023598;28;20080;-64
2023/05/27 11:17:20;;;;;;;3.30;1.90;;;24.00;43.70;;;;;;5021596;28;20022;-64
2023/05/27 11:19:46;;;;;;;3.65;1.70;;;24.00;43.80;;;;;;5016890;28;20025;-65
2023/05/27 11:22:13;;;;;;;3.33;1.73;;;24.00;43.80;;;;;;5019251;28;20026;-64
2023/05/27 11:24:40;;;;;;;2.58;1.60;;;24.00;43.90;;;;;;5016019;28;20653;-65
2023/05/27 11:27:10;;;;;;;4.13;1.95;;;24.00;44.00;;;;;;5024061;28;20030;-65
2023/05/27 11:29:36;;;;;;;3.13;1.60;;;24.00;44.00;;;;;;5021175;28;20042;-64
2023/05/27 11:32:03;;;;;;;3.65;1.70;;;24.00;44.10;;;;;;5022850;28;20621;-65
2023/05/27 11:34:28;;;;;;;3.63;1.90;;;24.00;44.20;;;;;;5023308;28;20377;-65
2023/05/27 11:36:55;;;;;;;3.40;1.80;;;24.00;44.20;;;;;;5019088;28;20033;-64
2023/05/27 11:39:21;;;;;;;3.13;1.75;;;24.00;44.30;;;;;;5022316;28;20470;-65
2023/05/27 11:41:52;;;;;;;2.80;1.60;;;24.00;44.30;;;;;;5022798;28;20088;-64
2023/05/27 11:44:20;;;;;;;3.38;1.85;;;24.00;44.40;;;;;;5020552;28;20034;-64
2023/05/27 11:46:47;;;;;;;3.30;1.95;;;24.00;44.40;;;;;;5022465;28;20022;-64
2023/05/27 11:49:15;;;;;;;3.13;1.63;;;24.00;44.50;;;;;;5020934;28;20024;-64
2023/05/27 11:51:43;;;;;;;3.40;1.88;;;24.00;44.50;;;;;;5023911;28;20040;-65
2023/05/27 11:54:21;;;;;;;3.70;1.83;;;24.00;44.40;;;;;;5022030;28;20030;-65
2023/05/27 11:56:48;;;;;;;3.78;1.70;;;24.00;44.50;;;;;;5021370;28;20028;-65
2023/05/27 11:59:14;;;;;;;3.17;1.75;;;24.00;44.60;;;;;;5023850;28;20112;-64
2023/05/27 12:01:40;;;;;;;2.97;1.80;;;24.00;44.60;;;;;;5021042;28;20048;-64
2023/05/27 12:04:06;;;;;;;2.55;1.55;;;24.00;44.60;;;;;;5019139;28;20029;-65
2023/05/27 12:06:32;;;;;;;3.75;1.83;;;24.00;44.60;;;;;;5020602;28;20028;-64
2023/05/27 12:08:57;;;;;;;3.03;1.60;;;23.90;44.60;;;;;;5023135;28;20034;-65
2023/05/27 12:11:23;;;;;;;3.28;1.80;;;24.00;44.80;;;;;;5021137;28;20485;-64
2023/05/27 12:13:51;;;;;;;3.03;1.77;;;23.90;44.70;;;;;;5021978;28;20482;-64
2023/05/27 12:16:16;;;;;;;3.30;1.90;;;24.00;44.80;;;;;;5020457;28;20030;-64
2023/05/27 12:18:42;;;;;;;3.67;2.00;;;23.90;44.80;;;;;;5019477;28;20052;-65
2023/05/27 12:21:08;;;;;;;3.60;1.98;;;23.90;44.80;;;;;;5026384;28;20373;-65
2023/05/27 12:23:33;;;;;;;3.38;1.80;;;23.90;44.80;;;;;;5019515;28;20060;-64
2023/05/27 12:25:59;;;;;;;3.50;1.80;;;23.90;44.90;;;;;;5019710;28;20121;-64
2023/05/27 12:28:26;;;;;;;2.92;1.75;;;23.90;44.90;;;;;;5020831;28;20030;-64
2023/05/27 12:30:51;;;;;;;3.22;1.70;;;23.90;44.90;;;;;;5017738;28;20026;-64
2023/05/27 12:33:17;;;;;;;3.17;1.70;;;23.90;45.00;;;;;;5020502;28;20045;-65
2023/05/27 12:35:43;;;;;;;3.45;1.70;;;23.90;45.00;;;;;;5019093;28;20022;-64
2023/05/27 12:38:09;;;;;;;2.42;1.50;;;23.90;45.10;;;;;;5020158;28;20065;-64
2023/05/27 12:40:34;;;;;;;2.63;1.60;;;23.90;45.10;;;;;;5020807;28;20026;-65
2023/05/27 12:43:03;;;;;;;3.80;1.80;;;23.90;45.10;;;;;;5021650;28;20026;-64
2023/05/27 12:45:28;;;;;;;2.83;1.50;;;23.90;45.20;;;;;;5019240;28;20101;-65
2023/05/27 12:47:54;;;;;;;3.22;1.80;;;23.90;45.20;;;;;;5021159;28;20124;-65